sensor_id;sensor_type;location;lat;lon;timestamp;pressure;altitude;pressure_sealevel;temperature;humidity
59419;BME280;45224;50.904;6.038;2023-02-15T00:00:06;101065.59;;;6.70;67.99
59419;BME280;45224;50.904;6.038;2023-02-15T00:01:38;101055.16;;;6.65;68.05
59419;BME280;45224;50.904;6.038;2023-02-15T00:03:08;101054.13;;;6.60;68.18
59419;BME280;45224;50.904;6.038;2023-02-15T00:04:39;101052.22;;;6.54;68.44
59419;BME280;45224;50.904;6.038;2023-02-15T00:06:18;101057.25;;;6.51;68.62
59419;BME280;45224;50.904;6.038;2023-02-15T00:07:49;101054.38;;;6.44;69.01
59419;BME280;45224;50.904;6.038;2023-02-15T00:09:19;101047.59;;;6.46;69.01
59419;BME280;45224;50.904;6.038;2023-02-15T00:10:50;101037.19;;;6.43;68.80
59419;BME280;45224;50.904;6.038;2023-02-15T00:12:20;101044.09;;;6.44;69.08
59419;BME280;45224;50.904;6.038;2023-02-15T00:13:51;101040.72;;;6.45;69.07
59419;BME280;45224;50.904;6.038;2023-02-15T00:15:21;101038.22;;;6.46;68.71
59419;BME280;45224;50.904;6.038;2023-02-15T00:16:52;101040.72;;;6.45;69.05
59419;BME280;45224;50.904;6.038;2023-02-15T00:18:23;101040.66;;;6.43;69.00
59419;BME280;45224;50.904;6.038;2023-02-15T00:19:53;101035.47;;;6.42;68.88
59419;BME280;45224;50.904;6.038;2023-02-15T00:21:24;101045.75;;;6.42;68.88
59419;BME280;45224;50.904;6.038;2023-02-15T00:22:54;101031.97;;;6.39;68.97
59419;BME280;45224;50.904;6.038;2023-02-15T00:24:25;101037.19;;;6.43;68.68
59419;BME280;45224;50.904;6.038;2023-02-15T00:26:12;101038.97;;;6.44;69.17
59419;BME280;45224;50.904;6.038;2023-02-15T00:27:44;101042.47;;;6.46;68.54
59419;BME280;45224;50.904;6.038;2023-02-15T00:29:16;101032.91;;;6.42;68.61
59419;BME280;45224;50.904;6.038;2023-02-15T00:30:47;101029.34;;;6.38;68.62
59419;BME280;45224;50.904;6.038;2023-02-15T00:32:18;101026.72;;;6.36;68.74
59419;BME280;45224;50.904;6.038;2023-02-15T00:33:48;101033.47;;;6.34;68.66
59419;BME280;45224;50.904;6.038;2023-02-15T00:35:19;101029.88;;;6.29;68.83
59419;BME280;45224;50.904;6.038;2023-02-15T00:36:49;101026.25;;;6.24;69.11
59419;BME280;45224;50.904;6.038;2023-02-15T00:38:20;101031.28;;;6.21;68.95
59419;BME280;45224;50.904;6.038;2023-02-15T00:39:50;101027.00;;;6.21;68.95
59419;BME280;45224;50.904;6.038;2023-02-15T00:41:21;101031.88;;;6.14;69.14
59419;BME280;45224;50.904;6.038;2023-02-15T00:42:51;101028.47;;;6.15;68.93
59419;BME280;45224;50.904;6.038;2023-02-15T00:44:22;101024.97;;;6.13;69.03
59419;BME280;45224;50.904;6.038;2023-02-15T00:45:52;101032.69;;;6.13;69.20
59419;BME280;45224;50.904;6.038;2023-02-15T00:47:23;101033.31;;;6.07;69.29
59419;BME280;45224;50.904;6.038;2023-02-15T00:48:55;101027.19;;;6.03;69.46
59419;BME280;45224;50.904;6.038;2023-02-15T00:50:26;101032.09;;;5.97;69.48
59419;BME280;45224;50.904;6.038;2023-02-15T00:51:56;101034.47;;;5.93;69.38
59419;BME280;45224;50.904;6.038;2023-02-15T00:53:28;101037.09;;;5.94;69.65
59419;BME280;45224;50.904;6.038;2023-02-15T00:54:58;101042.13;;;5.91;69.90
59419;BME280;45224;50.904;6.038;2023-02-15T00:56:29;101035.09;;;5.87;70.45
59419;BME280;45224;50.904;6.038;2023-02-15T00:57:59;101042.00;;;5.88;70.37
59419;BME280;45224;50.904;6.038;2023-02-15T00:59:30;101033.44;;;5.89;69.72
59419;BME280;45224;50.904;6.038;2023-02-15T01:01:05;101041.22;;;5.91;70.26
59419;BME280;45224;50.904;6.038;2023-02-15T01:02:36;101029.16;;;5.88;70.13
59419;BME280;45224;50.904;6.038;2023-02-15T01:04:06;101025.75;;;5.89;70.15
59419;BME280;45224;50.904;6.038;2023-02-15T01:05:37;101028.31;;;5.89;69.86
59419;BME280;45224;50.904;6.038;2023-02-15T01:07:08;101028.44;;;5.92;69.92
59419;BME280;45224;50.904;6.038;2023-02-15T01:08:39;101025.94;;;5.94;69.72
59419;BME280;45224;50.904;6.038;2023-02-15T01:10:09;101021.56;;;5.91;69.76
59419;BME280;45224;50.904;6.038;2023-02-15T01:11:40;101025.75;;;5.89;69.63
59419;BME280;45224;50.904;6.038;2023-02-15T01:13:10;101023.06;;;5.86;69.90
59419;BME280;45224;50.904;6.038;2023-02-15T01:14:41;101023.00;;;5.84;69.87
59419;BME280;45224;50.904;6.038;2023-02-15T01:16:11;101016.06;;;5.82;70.05
59419;BME280;45224;50.904;6.038;2023-02-15T01:17:42;101021.09;;;5.79;70.29
59419;BME280;45224;50.904;6.038;2023-02-15T01:19:14;101015.84;;;5.76;69.84
59419;BME280;45224;50.904;6.038;2023-02-15T01:20:44;101018.47;;;5.77;70.20
59419;BME280;45224;50.904;6.038;2023-02-15T01:22:15;101009.66;;;5.71;70.06
59419;BME280;45224;50.904;6.038;2023-02-15T01:23:45;101012.91;;;5.66;70.20
59419;BME280;45224;50.904;6.038;2023-02-15T01:25:17;101014.41;;;5.61;70.60
59419;BME280;45224;50.904;6.038;2023-02-15T01:26:48;101002.22;;;5.56;70.49
59419;BME280;45224;50.904;6.038;2023-02-15T01:28:18;101008.97;;;5.54;71.00
59419;BME280;45224;50.904;6.038;2023-02-15T01:29:49;101007.25;;;5.53;70.89
59419;BME280;45224;50.904;6.038;2023-02-15T01:31:20;101003.91;;;5.55;70.88
59419;BME280;45224;50.904;6.038;2023-02-15T01:32:51;101003.22;;;5.59;70.92
59419;BME280;45224;50.904;6.038;2023-02-15T01:34:21;101006.72;;;5.61;70.75
59419;BME280;45224;50.904;6.038;2023-02-15T01:35:58;101006.84;;;5.64;70.79
59419;BME280;45224;50.904;6.038;2023-02-15T01:37:32;100997.44;;;5.65;70.40
59419;BME280;45224;50.904;6.038;2023-02-15T01:39:03;101003.59;;;5.69;70.32
59419;BME280;45224;50.904;6.038;2023-02-15T01:40:35;101008.59;;;5.65;70.88
59419;BME280;45224;50.904;6.038;2023-02-15T01:42:10;101000.00;;;5.65;70.76
59419;BME280;45224;50.904;6.038;2023-02-15T01:43:42;101001.72;;;5.64;70.87
59419;BME280;45224;50.904;6.038;2023-02-15T01:46:51;100995.66;;;5.62;70.58
59419;BME280;45224;50.904;6.038;2023-02-15T01:48:24;100990.41;;;5.59;70.61
59419;BME280;45224;50.904;6.038;2023-02-15T01:51:51;100995.66;;;5.62;70.42
59419;BME280;45224;50.904;6.038;2023-02-15T01:53:34;100993.69;;;5.57;70.51
59419;BME280;45224;50.904;6.038;2023-02-15T01:55:07;100989.28;;;5.53;70.48
59419;BME280;45224;50.904;6.038;2023-02-15T01:56:39;100983.09;;;5.47;70.70
59419;BME280;45224;50.904;6.038;2023-02-15T01:58:11;100986.66;;;5.51;70.48
59419;BME280;45224;50.904;6.038;2023-02-15T01:59:43;100987.53;;;5.52;70.68
59419;BME280;45224;50.904;6.038;2023-02-15T02:01:17;100989.22;;;5.51;71.06
59419;BME280;45224;50.904;6.038;2023-02-15T02:02:48;100983.97;;;5.48;71.32
59419;BME280;45224;50.904;6.038;2023-02-15T02:04:36;100983.16;;;5.49;71.03
59419;BME280;45224;50.904;6.038;2023-02-15T02:06:10;100978.13;;;5.52;70.91
59419;BME280;45224;50.904;6.038;2023-02-15T02:07:45;100979.28;;;5.59;70.66
59419;BME280;45224;50.904;6.038;2023-02-15T02:09:16;100971.50;;;5.57;70.68
59419;BME280;45224;50.904;6.038;2023-02-15T02:10:47;100977.44;;;5.56;70.60
59419;BME280;45224;50.904;6.038;2023-02-15T02:12:18;100975.75;;;5.57;71.07
59419;BME280;45224;50.904;6.038;2023-02-15T02:13:51;100973.25;;;5.58;70.54
59419;BME280;45224;50.904;6.038;2023-02-15T02:17:22;100970.91;;;5.64;69.95
59419;BME280;45224;50.904;6.038;2023-02-15T02:19:10;100966.53;;;5.62;70.18
59419;BME280;45224;50.904;6.038;2023-02-15T02:30:14;100952.06;;;5.41;71.06
59419;BME280;45224;50.904;6.038;2023-02-15T02:37:17;100955.50;;;5.42;70.62
59419;BME280;45224;50.904;6.038;2023-02-15T02:42:35;100944.94;;;5.34;70.85
59419;BME280;45224;50.904;6.038;2023-02-15T02:44:14;100944.88;;;5.33;70.74
59419;BME280;45224;50.904;6.038;2023-02-15T02:45:59;100943.81;;;5.27;71.02
59419;BME280;45224;50.904;6.038;2023-02-15T02:47:40;100939.56;;;5.28;70.89
59419;BME280;45224;50.904;6.038;2023-02-15T02:49:13;100930.19;;;5.28;70.33
59419;BME280;45224;50.904;6.038;2023-02-15T02:50:44;100930.31;;;5.32;70.44
59419;BME280;45224;50.904;6.038;2023-02-15T02:54:05;100938.56;;;5.24;70.46
59419;BME280;45224;50.904;6.038;2023-02-15T02:57:10;100929.06;;;5.22;70.65
59419;BME280;45224;50.904;6.038;2023-02-15T02:58:51;100924.69;;;5.19;70.81
59419;BME280;45224;50.904;6.038;2023-02-15T03:00:25;100919.50;;;5.18;70.88
59419;BME280;45224;50.904;6.038;2023-02-15T03:02:08;100916.81;;;5.15;70.85
59419;BME280;45224;50.904;6.038;2023-02-15T03:04:13;100920.94;;;5.11;71.23
59419;BME280;45224;50.904;6.038;2023-02-15T03:05:47;100924.19;;;5.07;71.42
59419;BME280;45224;50.904;6.038;2023-02-15T03:07:22;100915.44;;;5.02;71.16
59419;BME280;45224;50.904;6.038;2023-02-15T03:09:00;100918.00;;;5.02;70.95
59419;BME280;45224;50.904;6.038;2023-02-15T03:10:34;100918.84;;;5.01;71.37
59419;BME280;45224;50.904;6.038;2023-02-15T03:12:05;100917.19;;;5.03;70.85
59419;BME280;45224;50.904;6.038;2023-02-15T03:13:41;100915.31;;;4.99;70.96
59419;BME280;45224;50.904;6.038;2023-02-15T03:15:29;100928.25;;;5.02;71.42
59419;BME280;45224;50.904;6.038;2023-02-15T03:17:22;100914.25;;;4.93;70.90
59419;BME280;45224;50.904;6.038;2023-02-15T03:19:08;100918.59;;;4.94;71.08
59419;BME280;45224;50.904;6.038;2023-02-15T03:20:39;100913.25;;;4.90;71.70
59419;BME280;45224;50.904;6.038;2023-02-15T03:22:17;100907.28;;;4.89;71.33
59419;BME280;45224;50.904;6.038;2023-02-15T03:23:56;100913.31;;;4.91;71.17
59419;BME280;45224;50.904;6.038;2023-02-15T03:25:34;100916.81;;;4.93;70.96
59419;BME280;45224;50.904;6.038;2023-02-15T03:27:11;100909.94;;;4.92;71.29
59419;BME280;45224;50.904;6.038;2023-02-15T03:28:45;100913.47;;;4.94;71.17
59419;BME280;45224;50.904;6.038;2023-02-15T03:30:20;100896.75;;;4.83;70.85
59419;BME280;45224;50.904;6.038;2023-02-15T03:31:56;100909.00;;;4.90;71.28
59419;BME280;45224;50.904;6.038;2023-02-15T03:33:28;100906.44;;;4.90;70.95
59419;BME280;45224;50.904;6.038;2023-02-15T03:35:00;100904.59;;;4.86;71.19
59419;BME280;45224;50.904;6.038;2023-02-15T03:38:20;100904.31;;;4.80;70.93
59419;BME280;45224;50.904;6.038;2023-02-15T03:39:59;100912.88;;;4.81;71.41
59419;BME280;45224;50.904;6.038;2023-02-15T03:45:17;100909.19;;;4.74;71.23
59419;BME280;45224;50.904;6.038;2023-02-15T03:47:01;100899.69;;;4.71;71.45
59419;BME280;45224;50.904;6.038;2023-02-15T03:48:54;100893.81;;;4.74;71.41
59419;BME280;45224;50.904;6.038;2023-02-15T03:50:30;100901.31;;;4.69;71.36
59419;BME280;45224;50.904;6.038;2023-02-15T03:52:21;100899.59;;;4.68;71.34
59419;BME280;45224;50.904;6.038;2023-02-15T03:53:54;100895.19;;;4.66;71.30
59419;BME280;45224;50.904;6.038;2023-02-15T03:55:25;100896.00;;;4.65;71.51
59419;BME280;45224;50.904;6.038;2023-02-15T03:56:57;100893.16;;;4.58;71.78
59419;BME280;45224;50.904;6.038;2023-02-15T03:58:47;100894.81;;;4.56;71.50
59419;BME280;45224;50.904;6.038;2023-02-15T04:00:40;100895.38;;;4.49;71.93
59419;BME280;45224;50.904;6.038;2023-02-15T04:02:47;100883.03;;;4.41;72.32
59419;BME280;45224;50.904;6.038;2023-02-15T04:04:24;100891.47;;;4.38;72.26
59419;BME280;45224;50.904;6.038;2023-02-15T04:05:55;100886.16;;;4.33;72.45
59419;BME280;45224;50.904;6.038;2023-02-15T04:07:25;100888.66;;;4.32;73.17
59419;BME280;45224;50.904;6.038;2023-02-15T04:08:56;100883.38;;;4.29;73.38
59419;BME280;45224;50.904;6.038;2023-02-15T04:10:45;100881.50;;;4.25;73.89
59419;BME280;45224;50.904;6.038;2023-02-15T04:12:26;100878.91;;;4.23;73.62
59419;BME280;45224;50.904;6.038;2023-02-15T04:13:56;100876.28;;;4.22;73.21
59419;BME280;45224;50.904;6.038;2023-02-15T04:15:27;100881.47;;;4.23;73.73
59419;BME280;45224;50.904;6.038;2023-02-15T04:17:16;100882.13;;;4.19;74.03
59419;BME280;45224;50.904;6.038;2023-02-15T04:18:46;100891.50;;;4.18;74.14
59419;BME280;45224;50.904;6.038;2023-02-15T04:20:36;100884.06;;;4.25;73.69
59419;BME280;45224;50.904;6.038;2023-02-15T04:22:25;100886.63;;;4.25;73.26
59419;BME280;45224;50.904;6.038;2023-02-15T04:24:14;100874.31;;;4.16;73.20
59419;BME280;45224;50.904;6.038;2023-02-15T04:26:04;100884.69;;;4.19;73.62
59419;BME280;45224;50.904;6.038;2023-02-15T04:27:38;100894.13;;;4.20;73.70
59419;BME280;45224;50.904;6.038;2023-02-15T04:29:08;100889.72;;;4.17;73.99
59419;BME280;45224;50.904;6.038;2023-02-15T04:30:39;100886.09;;;4.12;73.94
59419;BME280;45224;50.904;6.038;2023-02-15T04:32:09;100894.66;;;4.13;74.04
59419;BME280;45224;50.904;6.038;2023-02-15T04:33:40;100890.34;;;4.12;73.62
59419;BME280;45224;50.904;6.038;2023-02-15T04:35:10;100898.97;;;4.14;73.27
59419;BME280;45224;50.904;6.038;2023-02-15T04:36:41;100894.84;;;4.17;72.91
59419;BME280;45224;50.904;6.038;2023-02-15T04:38:12;100894.84;;;4.17;73.27
59419;BME280;45224;50.904;6.038;2023-02-15T04:39:43;100898.22;;;4.16;73.36
59419;BME280;45224;50.904;6.038;2023-02-15T04:41:13;100885.97;;;4.09;73.28
59419;BME280;45224;50.904;6.038;2023-02-15T04:42:43;100894.56;;;4.11;73.06
59419;BME280;45224;50.904;6.038;2023-02-15T04:44:14;100888.59;;;4.11;73.53
59419;BME280;45224;50.904;6.038;2023-02-15T04:45:48;100893.72;;;4.11;73.37
59419;BME280;45224;50.904;6.038;2023-02-15T04:47:20;100883.47;;;4.11;73.37
59419;BME280;45224;50.904;6.038;2023-02-15T04:48:50;100875.72;;;4.09;73.60
59419;BME280;45224;50.904;6.038;2023-02-15T04:50:21;100884.19;;;4.08;73.50
59419;BME280;45224;50.904;6.038;2023-02-15T04:51:51;100886.84;;;4.10;72.86
59419;BME280;45224;50.904;6.038;2023-02-15T04:53:22;100875.72;;;4.09;72.80
59419;BME280;45224;50.904;6.038;2023-02-15T04:54:52;100884.06;;;4.05;73.43
59419;BME280;45224;50.904;6.038;2023-02-15T04:56:23;100870.34;;;4.03;73.40
59419;BME280;45224;50.904;6.038;2023-02-15T04:57:53;100878.16;;;4.06;73.13
59419;BME280;45224;50.904;6.038;2023-02-15T04:59:24;100872.09;;;4.04;72.76
59419;BME280;45224;50.904;6.038;2023-02-15T05:00:55;100877.34;;;4.07;72.75
59419;BME280;45224;50.904;6.038;2023-02-15T05:02:26;100870.47;;;4.06;72.85
59419;BME280;45224;50.904;6.038;2023-02-15T05:03:56;100873.84;;;4.05;72.67
59419;BME280;45224;50.904;6.038;2023-02-15T05:05:27;100867.06;;;4.06;72.94
59419;BME280;45224;50.904;6.038;2023-02-15T05:06:57;100869.59;;;4.06;73.05
59419;BME280;45224;50.904;6.038;2023-02-15T05:08:28;100871.28;;;4.05;73.06
59419;BME280;45224;50.904;6.038;2023-02-15T05:09:58;100866.97;;;4.04;72.74
59419;BME280;45224;50.904;6.038;2023-02-15T05:11:29;100864.34;;;4.02;73.03
59419;BME280;45224;50.904;6.038;2023-02-15T05:12:59;100868.72;;;4.05;72.60
59419;BME280;45224;50.904;6.038;2023-02-15T05:14:30;100865.22;;;4.03;72.90
59419;BME280;45224;50.904;6.038;2023-02-15T05:16:00;100864.28;;;4.01;72.91
59419;BME280;45224;50.904;6.038;2023-02-15T05:17:31;100863.34;;;3.99;73.16
59419;BME280;45224;50.904;6.038;2023-02-15T05:19:01;100859.69;;;3.94;73.09
59419;BME280;45224;50.904;6.038;2023-02-15T05:20:32;100860.38;;;3.90;73.26
59419;BME280;45224;50.904;6.038;2023-02-15T05:22:03;100857.81;;;3.90;73.13
59419;BME280;45224;50.904;6.038;2023-02-15T05:23:34;100862.66;;;3.83;73.77
59419;BME280;45224;50.904;6.038;2023-02-15T05:25:04;100854.84;;;3.80;73.34
59419;BME280;45224;50.904;6.038;2023-02-15T05:26:53;100863.53;;;3.84;73.28
59419;BME280;45224;50.904;6.038;2023-02-15T05:28:42;100864.44;;;3.84;73.72
59419;BME280;45224;50.904;6.038;2023-02-15T05:30:13;100854.19;;;3.84;73.35
59419;BME280;45224;50.904;6.038;2023-02-15T05:31:43;100855.84;;;3.84;72.60
59419;BME280;45224;50.904;6.038;2023-02-15T05:33:17;100854.19;;;3.84;72.90
59419;BME280;45224;50.904;6.038;2023-02-15T05:34:48;100848.94;;;3.81;73.08
59419;BME280;45224;50.904;6.038;2023-02-15T05:36:18;100852.44;;;3.83;72.71
59419;BME280;45224;50.904;6.038;2023-02-15T05:37:48;100858.28;;;3.81;73.14
59419;BME280;45224;50.904;6.038;2023-02-15T05:39:19;100850.53;;;3.79;72.53
59419;BME280;45224;50.904;6.038;2023-02-15T05:40:52;100856.47;;;3.78;73.18
59419;BME280;45224;50.904;6.038;2023-02-15T05:42:23;100859.53;;;3.71;73.19
59419;BME280;45224;50.904;6.038;2023-02-15T05:43:55;100860.38;;;3.70;72.78
59419;BME280;45224;50.904;6.038;2023-02-15T05:45:26;100857.81;;;3.70;73.20
59419;BME280;45224;50.904;6.038;2023-02-15T05:46:57;100852.41;;;3.64;73.25
59419;BME280;45224;50.904;6.038;2023-02-15T05:48:28;100864.72;;;3.73;72.81
59419;BME280;45224;50.904;6.038;2023-02-15T05:49:59;100858.75;;;3.72;72.74
59419;BME280;45224;50.904;6.038;2023-02-15T05:51:29;100861.25;;;3.71;73.30
59419;BME280;45224;50.904;6.038;2023-02-15T05:53:00;100861.16;;;3.69;72.48
59419;BME280;45224;50.904;6.038;2023-02-15T05:54:30;100861.84;;;3.65;72.63
59419;BME280;45224;50.904;6.038;2023-02-15T05:56:01;100855.97;;;3.68;72.52
59419;BME280;45224;50.904;6.038;2023-02-15T05:57:32;100859.41;;;3.68;73.60
59419;BME280;45224;50.904;6.038;2023-02-15T05:59:03;100855.91;;;3.66;72.93
59419;BME280;45224;50.904;6.038;2023-02-15T06:00:34;100859.81;;;3.58;74.00
59419;BME280;45224;50.904;6.038;2023-02-15T06:02:04;100860.41;;;3.52;73.58
59419;BME280;45224;50.904;6.038;2023-02-15T06:03:36;100862.44;;;3.59;73.56
59419;BME280;45224;50.904;6.038;2023-02-15T06:05:07;100863.31;;;3.60;73.66
59419;BME280;45224;50.904;6.038;2023-02-15T06:06:37;100851.34;;;3.59;73.44
59419;BME280;45224;50.904;6.038;2023-02-15T06:08:08;100864.28;;;3.62;73.62
59419;BME280;45224;50.904;6.038;2023-02-15T06:09:39;100855.91;;;3.66;73.04
59419;BME280;45224;50.904;6.038;2023-02-15T06:11:09;100855.13;;;3.67;72.88
59419;BME280;45224;50.904;6.038;2023-02-15T06:12:39;100863.13;;;3.75;72.71
59419;BME280;45224;50.904;6.038;2023-02-15T06:14:10;100853.50;;;3.69;72.99
59419;BME280;45224;50.904;6.038;2023-02-15T06:15:41;100865.50;;;3.70;73.90
59419;BME280;45224;50.904;6.038;2023-02-15T06:17:11;100863.88;;;3.72;72.72
59419;BME280;45224;50.904;6.038;2023-02-15T06:18:42;100856.84;;;3.68;73.31
59419;BME280;45224;50.904;6.038;2023-02-15T06:20:13;100858.47;;;3.66;73.36
59419;BME280;45224;50.904;6.038;2023-02-15T06:21:43;100864.41;;;3.65;73.70
59419;BME280;45224;50.904;6.038;2023-02-15T06:23:14;100865.06;;;3.61;73.99
59419;BME280;45224;50.904;6.038;2023-02-15T06:24:45;100870.97;;;3.60;73.78
59419;BME280;45224;50.904;6.038;2023-02-15T06:26:15;100865.06;;;3.61;73.82
59419;BME280;45224;50.904;6.038;2023-02-15T06:27:46;100860.03;;;3.62;73.72
59419;BME280;45224;50.904;6.038;2023-02-15T06:29:16;100861.03;;;3.66;73.45
59419;BME280;45224;50.904;6.038;2023-02-15T06:30:47;100849.19;;;3.68;73.35
59419;BME280;45224;50.904;6.038;2023-02-15T06:32:17;100855.41;;;3.73;73.03
59419;BME280;45224;50.904;6.038;2023-02-15T06:33:48;100850.13;;;3.70;73.02
59419;BME280;45224;50.904;6.038;2023-02-15T06:35:18;100871.75;;;3.77;73.05
59419;BME280;45224;50.904;6.038;2023-02-15T06:36:49;100858.88;;;3.75;72.77
59419;BME280;45224;50.904;6.038;2023-02-15T06:38:20;100860.50;;;3.73;73.12
59419;BME280;45224;50.904;6.038;2023-02-15T06:39:50;100864.06;;;3.77;73.13
59419;BME280;45224;50.904;6.038;2023-02-15T06:41:21;100861.44;;;3.75;72.73
59419;BME280;45224;50.904;6.038;2023-02-15T06:42:52;100855.66;;;3.79;73.03
59419;BME280;45224;50.904;6.038;2023-02-15T06:44:22;100857.19;;;3.76;72.91
59419;BME280;45224;50.904;6.038;2023-02-15T06:45:52;100857.06;;;3.73;73.10
59419;BME280;45224;50.904;6.038;2023-02-15T06:47:23;100858.81;;;3.74;72.61
59419;BME280;45224;50.904;6.038;2023-02-15T06:48:53;100846.91;;;3.74;72.63
59419;BME280;45224;50.904;6.038;2023-02-15T06:50:24;100854.44;;;3.71;72.75
59419;BME280;45224;50.904;6.038;2023-02-15T06:51:54;100856.25;;;3.74;72.65
59419;BME280;45224;50.904;6.038;2023-02-15T06:53:25;100851.72;;;3.68;73.04
59419;BME280;45224;50.904;6.038;2023-02-15T06:54:55;100856.25;;;3.74;73.11
59419;BME280;45224;50.904;6.038;2023-02-15T06:56:26;100859.16;;;3.81;72.25
59419;BME280;45224;50.904;6.038;2023-02-15T06:57:56;100863.47;;;3.82;72.27
59419;BME280;45224;50.904;6.038;2023-02-15T06:59:27;100854.78;;;3.79;72.92
59419;BME280;45224;50.904;6.038;2023-02-15T07:00:57;100864.28;;;3.81;73.05
59419;BME280;45224;50.904;6.038;2023-02-15T07:02:28;100856.69;;;3.83;72.67
59419;BME280;45224;50.904;6.038;2023-02-15T07:03:58;100849.88;;;3.83;72.30
59419;BME280;45224;50.904;6.038;2023-02-15T07:05:29;100845.63;;;3.84;72.44
59419;BME280;45224;50.904;6.038;2023-02-15T07:07:03;100842.91;;;3.81;72.23
59419;BME280;45224;50.904;6.038;2023-02-15T07:08:37;100856.88;;;3.88;72.34
59419;BME280;45224;50.904;6.038;2023-02-15T07:10:08;100850.00;;;3.87;72.73
59419;BME280;45224;50.904;6.038;2023-02-15T07:11:38;100857.06;;;3.92;72.79
59419;BME280;45224;50.904;6.038;2023-02-15T07:13:27;100858.91;;;3.95;72.44
59419;BME280;45224;50.904;6.038;2023-02-15T07:14:58;100854.72;;;3.97;72.86
59419;BME280;45224;50.904;6.038;2023-02-15T07:16:28;100852.16;;;3.97;72.71
59419;BME280;45224;50.904;6.038;2023-02-15T07:17:59;100851.94;;;3.92;73.15
59419;BME280;45224;50.904;6.038;2023-02-15T07:19:29;100855.59;;;3.97;73.07
59419;BME280;45224;50.904;6.038;2023-02-15T07:21:00;100844.59;;;4.00;72.67
59419;BME280;45224;50.904;6.038;2023-02-15T07:22:30;100843.13;;;4.05;73.46
59419;BME280;45224;50.904;6.038;2023-02-15T07:24:01;100836.53;;;4.10;73.51
59419;BME280;45224;50.904;6.038;2023-02-15T07:25:31;100842.94;;;4.20;73.36
59419;BME280;45224;50.904;6.038;2023-02-15T07:27:02;100840.44;;;4.22;72.89
59419;BME280;45224;50.904;6.038;2023-02-15T07:28:33;100849.44;;;4.33;72.55
59419;BME280;45224;50.904;6.038;2023-02-15T07:30:05;100846.19;;;4.37;73.01
59419;BME280;45224;50.904;6.038;2023-02-15T07:31:36;100843.75;;;4.40;72.35
59419;BME280;45224;50.904;6.038;2023-02-15T07:33:07;100833.06;;;4.50;72.36
59419;BME280;45224;50.904;6.038;2023-02-15T07:34:58;100846.13;;;4.56;72.85
59419;BME280;45224;50.904;6.038;2023-02-15T07:36:28;100833.53;;;4.61;72.72
59419;BME280;45224;50.904;6.038;2023-02-15T07:37:59;100840.28;;;4.80;72.43
59419;BME280;45224;50.904;6.038;2023-02-15T07:39:30;100840.66;;;4.89;72.53
59419;BME280;45224;50.904;6.038;2023-02-15T07:41:05;100838.78;;;5.08;72.17
59419;BME280;45224;50.904;6.038;2023-02-15T07:42:36;100841.13;;;5.24;72.18
59419;BME280;45224;50.904;6.038;2023-02-15T07:44:11;100828.59;;;5.32;71.31
59419;BME280;45224;50.904;6.038;2023-02-15T07:45:43;100833.44;;;5.47;71.36
59419;BME280;45224;50.904;6.038;2023-02-15T07:47:13;100832.63;;;5.48;71.00
59419;BME280;45224;50.904;6.038;2023-02-15T07:48:44;100823.63;;;5.59;71.07
59419;BME280;45224;50.904;6.038;2023-02-15T07:50:15;100834.13;;;5.65;69.07
59419;BME280;45224;50.904;6.038;2023-02-15T07:51:45;100820.81;;;5.76;69.68
59419;BME280;45224;50.904;6.038;2023-02-15T07:53:16;100824.63;;;5.87;69.74
59419;BME280;45224;50.904;6.038;2023-02-15T07:54:46;100825.72;;;5.94;69.31
59419;BME280;45224;50.904;6.038;2023-02-15T07:56:17;100820.19;;;6.06;68.60
59419;BME280;45224;50.904;6.038;2023-02-15T07:57:49;100816.59;;;6.26;68.89
59419;BME280;45224;50.904;6.038;2023-02-15T07:59:20;100809.09;;;6.32;68.72
59419;BME280;45224;50.904;6.038;2023-02-15T08:00:50;100816.09;;;6.36;67.32
59419;BME280;45224;50.904;6.038;2023-02-15T08:02:27;100813.09;;;6.50;67.22
59419;BME280;45224;50.904;6.038;2023-02-15T08:03:59;100810.00;;;6.60;67.19
59419;BME280;45224;50.904;6.038;2023-02-15T08:05:29;100805.25;;;6.72;67.01
59419;BME280;45224;50.904;6.038;2023-02-15T08:07:00;100806.63;;;6.88;66.64
59419;BME280;45224;50.904;6.038;2023-02-15T08:08:30;100803.00;;;7.10;67.29
59419;BME280;45224;50.904;6.038;2023-02-15T08:10:01;100807.59;;;7.21;66.04
59419;BME280;45224;50.904;6.038;2023-02-15T08:11:34;100803.75;;;7.35;66.72
59419;BME280;45224;50.904;6.038;2023-02-15T08:13:05;100809.31;;;7.50;65.89
59419;BME280;45224;50.904;6.038;2023-02-15T08:14:35;100799.78;;;7.46;64.41
59419;BME280;45224;50.904;6.038;2023-02-15T08:16:06;100802.44;;;7.49;62.46
59419;BME280;45224;50.904;6.038;2023-02-15T08:17:36;100802.44;;;7.49;60.39
59419;BME280;45224;50.904;6.038;2023-02-15T08:19:20;100795.81;;;7.58;60.91
59419;BME280;45224;50.904;6.038;2023-02-15T08:20:51;100793.25;;;7.58;61.79
59419;BME280;45224;50.904;6.038;2023-02-15T08:22:21;100794.31;;;7.66;61.21
59419;BME280;45224;50.904;6.038;2023-02-15T08:23:52;100796.22;;;7.73;60.44
59419;BME280;45224;50.904;6.038;2023-02-15T08:25:22;100796.28;;;7.75;59.70
59419;BME280;45224;50.904;6.038;2023-02-15T08:26:53;100795.31;;;7.71;59.94
59419;BME280;45224;50.904;6.038;2023-02-15T08:28:24;100794.66;;;7.78;60.18
59419;BME280;45224;50.904;6.038;2023-02-15T08:29:54;100796.41;;;7.79;59.23
59419;BME280;45224;50.904;6.038;2023-02-15T08:31:25;100804.16;;;7.81;57.93
59419;BME280;45224;50.904;6.038;2023-02-15T08:32:55;100805.38;;;7.94;59.11
59419;BME280;45224;50.904;6.038;2023-02-15T08:34:26;100791.00;;;8.02;59.11
59419;BME280;45224;50.904;6.038;2023-02-15T08:35:56;100800.84;;;8.18;58.98
59419;BME280;45224;50.904;6.038;2023-02-15T08:37:27;100797.78;;;8.32;58.58
59419;BME280;45224;50.904;6.038;2023-02-15T08:38:58;100800.09;;;8.54;57.62
59419;BME280;45224;50.904;6.038;2023-02-15T08:40:29;100809.03;;;8.69;57.51
59419;BME280;45224;50.904;6.038;2023-02-15T08:42:00;100811.00;;;8.79;57.27
59419;BME280;45224;50.904;6.038;2023-02-15T08:43:30;100804.38;;;8.90;56.49
59419;BME280;45224;50.904;6.038;2023-02-15T08:45:01;100802.31;;;9.13;56.42